Koshkonong, Missouri
Current Conditions -  °F | °C
As of 10:53 AM on Friday 28 Nov 2014 (Local Time) from KUNO Reporting Station
Clear Clear  
Wind Chill:   Ceiling: Unl
Heat Index:   Visibility: 10mi
Dew Point: -1°   Wind: 14mph
Humidity: 56%   Direction: 190°S
Pressure: 30.18"   Gusts: 23mph
Location:  36.6°N, 91.65°W
Report Text: KUNO 281653Z AUTO 19012G20KT 10SM CLR 07/M01 A3018 RMK AO2 SLP226 T00721011
Loading
Personal Weather Stations






























Interactive Weather Map New forecast layout! Learn more

10-Day Weather Forecast

Advertisements
Track Severe Weather on mobile